Time;durP1;ratioP1;P1;durP2;ratioP2;P2;SDS_P1;SDS_P2;PMS_P1;PMS_P2;Temp;Humidity;BMP_temperature;BMP_pressure;BME280_temperature;BME280_humidity;BME280_pressure;Samples;Min_cycle;Max_cycle;Signal;HPM_P1;HPM_P2
2021/10/07 00:01:14;;;;;;;53.67;28.30;;;11.50;99.90;;;;;;5108513;28;20027;-58
2021/10/07 00:03:40;;;;;;;47.83;28.10;;;11.50;99.90;;;;;;5109624;28;20031;-57
2021/10/07 00:06:05;;;;;;;49.28;28.40;;;11.50;99.90;;;;;;5106957;28;20645;-60
2021/10/07 00:08:31;;;;;;;51.33;29.45;;;11.50;99.90;;;;;;5099047;28;20430;-60
2021/10/07 00:10:56;;;;;;;43.58;27.45;;;11.50;99.90;;;;;;5109363;28;20376;-59
2021/10/07 00:13:22;;;;;;;56.38;28.70;;;11.50;99.90;;;;;;5106330;28;20392;-57
2021/10/07 00:15:47;;;;;;;48.90;29.20;;;11.50;99.90;;;;;;5087625;28;20416;-57
2021/10/07 00:18:13;;;;;;;45.70;29.00;;;11.50;99.90;;;;;;5107681;28;20028;-58
2021/10/07 00:20:39;;;;;;;50.80;29.30;;;11.50;99.90;;;;;;5105724;28;20038;-56
2021/10/07 00:23:04;;;;;;;49.95;27.60;;;11.50;99.90;;;;;;5103493;28;20384;-58
2021/10/07 00:25:30;;;;;;;57.30;29.92;;;11.50;99.90;;;;;;5105241;28;20015;-57
2021/10/07 00:28:04;;;;;;;51.90;29.80;;;11.40;99.90;;;;;;5091148;28;20042;-56
2021/10/07 00:30:30;;;;;;;47.47;28.13;;;11.50;99.90;;;;;;5104074;28;20028;-55
2021/10/07 00:41:16;;;;;;;47.50;27.80;;;11.50;99.90;;;;;;5036572;28;19916;-55
2021/10/07 00:43:41;;;;;;;58.22;28.40;;;11.50;99.90;;;;;;5037968;28;20041;-56
2021/10/07 00:46:07;;;;;;;55.70;28.27;;;11.50;99.90;;;;;;5069428;28;20048;-55
2021/10/07 00:48:32;;;;;;;55.85;28.45;;;11.50;99.90;;;;;;5105278;28;20030;-54
2021/10/07 00:50:58;;;;;;;44.08;28.00;;;11.50;99.90;;;;;;5105910;28;20032;-58
2021/10/07 00:53:23;;;;;;;54.60;29.60;;;11.50;99.90;;;;;;5108052;28;20032;-58
2021/10/07 00:55:49;;;;;;;63.42;28.58;;;11.50;99.90;;;;;;5106307;28;20027;-58
2021/10/07 00:58:17;;;;;;;49.35;27.80;;;11.60;99.90;;;;;;5096617;28;20035;-58
2021/10/07 01:00:43;;;;;;;50.80;27.23;;;11.60;99.90;;;;;;5100360;28;20106;-57
2021/10/07 01:03:09;;;;;;;51.30;30.48;;;11.60;99.90;;;;;;5101745;28;20064;-57
2021/10/07 01:05:35;;;;;;;56.15;29.92;;;11.60;99.90;;;;;;5099305;28;20058;-58
2021/10/07 01:08:01;;;;;;;47.22;29.33;;;11.60;99.90;;;;;;5101938;28;20069;-58
2021/10/07 01:10:27;;;;;;;51.50;28.40;;;11.50;99.90;;;;;;5109382;28;20027;-59
2021/10/07 01:12:52;;;;;;;62.42;30.85;;;11.60;99.90;;;;;;5109414;28;20027;-59
2021/10/07 01:15:18;;;;;;;56.30;28.60;;;11.60;99.90;;;;;;5106799;28;20069;-59
2021/10/07 01:17:44;;;;;;;53.50;30.52;;;11.60;99.90;;;;;;5104248;28;20028;-59
2021/10/07 01:20:12;;;;;;;51.85;29.85;;;11.60;99.90;;;;;;5105655;28;20070;-55
2021/10/07 01:22:38;;;;;;;46.50;27.95;;;11.50;99.90;;;;;;5101533;28;20051;-56
2021/10/07 01:25:04;;;;;;;51.60;28.65;;;11.60;99.90;;;;;;5110055;28;20036;-57
2021/10/07 01:27:32;;;;;;;43.67;26.20;;;11.60;99.90;;;;;;5095132;28;20065;-58
2021/10/07 01:30:01;;;;;;;47.35;26.33;;;11.60;99.90;;;;;;5103781;28;20127;-58
2021/10/07 01:32:27;;;;;;;48.55;24.95;;;11.60;99.90;;;;;;5103574;28;20032;-58
2021/10/07 01:34:53;;;;;;;50.05;26.23;;;11.60;99.90;;;;;;5107841;28;20020;-52
2021/10/07 01:37:19;;;;;;;46.22;26.42;;;11.60;99.90;;;;;;5110791;28;20081;-58
2021/10/07 01:39:45;;;;;;;44.67;25.80;;;11.60;99.90;;;;;;5110344;28;20088;-58
2021/10/07 01:42:10;;;;;;;48.45;27.23;;;11.60;99.90;;;;;;5105020;28;20076;-58
2021/10/07 01:44:37;;;;;;;45.65;27.50;;;11.60;99.90;;;;;;5109508;28;20032;-58
2021/10/07 01:47:03;;;;;;;49.05;26.85;;;11.60;99.90;;;;;;5102390;28;20028;-59
2021/10/07 01:49:28;;;;;;;51.30;26.40;;;11.60;99.90;;;;;;5100128;28;20039;-58
2021/10/07 01:51:54;;;;;;;52.85;28.15;;;11.60;99.90;;;;;;5106958;28;20046;-59
2021/10/07 01:54:20;;;;;;;44.92;26.55;;;11.60;99.90;;;;;;5102540;28;20412;-59
2021/10/07 01:56:45;;;;;;;50.70;25.27;;;11.60;99.90;;;;;;5105263;28;20108;-59
2021/10/07 01:59:11;;;;;;;39.83;24.15;;;11.60;99.90;;;;;;5109725;28;20517;-59
2021/10/07 02:01:37;;;;;;;37.28;19.73;;;11.60;99.90;;;;;;5105828;28;20039;-58
2021/10/07 02:04:04;;;;;;;39.47;23.83;;;11.60;99.90;;;;;;5105227;28;20114;-58
2021/10/07 02:06:31;;;;;;;37.05;22.85;;;11.70;99.90;;;;;;5111278;28;20088;-58
2021/10/07 02:08:57;;;;;;;37.97;22.75;;;11.70;99.90;;;;;;5105082;28;20455;-58
2021/10/07 02:11:23;;;;;;;39.65;23.88;;;11.60;99.90;;;;;;5103846;28;20069;-56
2021/10/07 02:13:49;;;;;;;41.08;24.65;;;11.70;99.90;;;;;;5107651;28;20023;-59
2021/10/07 02:16:14;;;;;;;48.72;25.75;;;11.70;99.90;;;;;;5109720;28;20034;-57
2021/10/07 02:18:40;;;;;;;41.97;24.42;;;11.70;99.90;;;;;;5098719;28;20024;-53
2021/10/07 02:21:06;;;;;;;42.67;24.75;;;11.70;99.90;;;;;;5106377;28;20038;-59
2021/10/07 02:23:32;;;;;;;42.72;25.35;;;11.70;99.90;;;;;;5096214;28;20032;-58
2021/10/07 02:25:58;;;;;;;51.35;26.98;;;11.70;99.90;;;;;;5109542;28;20416;-58
2021/10/07 02:28:24;;;;;;;46.63;25.80;;;11.60;99.90;;;;;;5092682;28;20063;-58
2021/10/07 02:30:49;;;;;;;49.60;27.73;;;11.60;99.90;;;;;;5100769;28;20385;-59
2021/10/07 02:33:16;;;;;;;48.25;27.77;;;11.60;99.90;;;;;;5110597;28;20110;-59
2021/10/07 02:35:42;;;;;;;62.15;28.63;;;11.60;99.90;;;;;;5108644;28;20039;-54
2021/10/07 02:38:08;;;;;;;54.55;28.85;;;11.60;99.90;;;;;;5110371;28;20020;-56
2021/10/07 02:40:34;;;;;;;63.60;30.58;;;11.60;99.90;;;;;;5110960;28;20024;-56
2021/10/07 02:42:59;;;;;;;57.15;28.50;;;11.60;99.90;;;;;;5104944;28;20115;-58
2021/10/07 02:45:26;;;;;;;51.63;30.25;;;11.60;99.90;;;;;;5103045;28;20035;-58
2021/10/07 02:47:52;;;;;;;64.90;30.70;;;11.60;99.90;;;;;;5110505;28;20023;-56
2021/10/07 02:50:20;;;;;;;57.20;30.25;;;11.60;99.90;;;;;;5105610;28;20028;-58
2021/10/07 02:52:46;;;;;;;57.55;30.13;;;11.70;99.90;;;;;;5109057;27;20024;-55
2021/10/07 02:55:12;;;;;;;53.70;29.65;;;11.70;99.90;;;;;;5105032;28;20412;-59
2021/10/07 02:57:40;;;;;;;56.40;29.70;;;11.70;99.90;;;;;;5098419;28;20028;-55
2021/10/07 03:00:07;;;;;;;56.65;31.30;;;11.70;99.90;;;;;;5101875;28;20098;-57
2021/10/07 03:02:33;;;;;;;58.42;28.95;;;11.60;99.90;;;;;;5103684;28;20027;-60
2021/10/07 03:04:59;;;;;;;54.80;27.83;;;11.60;99.90;;;;;;5100293;28;20042;-58
2021/10/07 03:07:24;;;;;;;52.20;28.83;;;11.70;99.90;;;;;;5104587;28;20036;-56
2021/10/07 03:09:50;;;;;;;61.83;29.00;;;11.60;99.90;;;;;;5100887;28;20019;-58
2021/10/07 03:12:16;;;;;;;55.88;28.52;;;11.60;99.90;;;;;;5106273;28;20153;-58
2021/10/07 03:14:42;;;;;;;52.88;28.67;;;11.70;99.90;;;;;;5103417;28;20061;-55
2021/10/07 03:17:09;;;;;;;66.03;30.60;;;11.60;99.90;;;;;;5102551;28;20028;-58
2021/10/07 03:19:35;;;;;;;49.75;28.48;;;11.70;99.90;;;;;;5102578;28;20035;-58
2021/10/07 03:22:01;;;;;;;54.40;30.27;;;11.70;99.90;;;;;;5109413;28;20027;-57
2021/10/07 03:24:26;;;;;;;49.40;29.58;;;11.60;99.90;;;;;;5102385;28;20552;-56
2021/10/07 03:26:52;;;;;;;58.10;31.00;;;11.70;99.90;;;;;;5102944;28;20516;-56
2021/10/07 03:29:17;;;;;;;50.20;27.95;;;11.60;99.90;;;;;;5082093;28;20055;-57
2021/10/07 03:31:43;;;;;;;52.35;28.90;;;11.70;99.90;;;;;;5106746;28;20104;-56
2021/10/07 03:34:08;;;;;;;51.78;29.83;;;11.70;99.90;;;;;;5104989;28;20076;-57
2021/10/07 03:36:34;;;;;;;60.70;30.80;;;11.70;99.90;;;;;;5102764;28;20425;-55
2021/10/07 03:39:00;;;;;;;75.28;33.25;;;11.60;99.90;;;;;;5101815;28;20038;-57
2021/10/07 03:41:25;;;;;;;65.32;30.52;;;11.60;99.90;;;;;;5098490;28;20023;-58
2021/10/07 03:43:51;;;;;;;56.70;29.85;;;11.60;99.90;;;;;;5107267;28;20024;-56
2021/10/07 03:46:17;;;;;;;51.38;28.77;;;11.60;99.90;;;;;;5107780;28;20098;-59
2021/10/07 03:48:43;;;;;;;51.47;28.88;;;11.60;99.90;;;;;;5107872;28;20030;-56
2021/10/07 03:51:09;;;;;;;55.22;29.95;;;11.60;99.90;;;;;;5102637;28;20081;-57
2021/10/07 03:53:35;;;;;;;66.15;30.38;;;11.60;99.90;;;;;;5102898;28;20043;-58
2021/10/07 03:56:01;;;;;;;53.95;28.75;;;11.60;99.90;;;;;;5106536;28;20073;-58
2021/10/07 03:58:26;;;;;;;55.63;29.48;;;11.60;99.90;;;;;;5098547;28;20031;-57
2021/10/07 04:00:52;;;;;;;56.47;29.80;;;11.50;99.90;;;;;;5106384;28;20028;-57
2021/10/07 04:03:17;;;;;;;48.85;27.27;;;11.50;99.90;;;;;;5107098;28;20027;-58
2021/10/07 04:05:43;;;;;;;47.40;27.40;;;11.40;99.90;;;;;;5097453;28;20072;-58
2021/10/07 04:08:08;;;;;;;56.80;29.27;;;11.30;99.90;;;;;;5101132;28;20042;-59
2021/10/07 04:10:34;;;;;;;51.85;28.83;;;11.20;99.90;;;;;;5105592;28;20035;-57
2021/10/07 04:13:00;;;;;;;55.50;25.92;;;11.00;99.90;;;;;;5105558;28;20036;-57
2021/10/07 04:15:26;;;;;;;54.75;26.85;;;10.90;99.90;;;;;;5103751;28;20024;-58
2021/10/07 04:17:51;;;;;;;59.17;29.00;;;10.90;99.90;;;;;;5100575;28;20035;-59
2021/10/07 04:20:17;;;;;;;57.17;28.77;;;10.80;99.90;;;;;;5104030;28;20027;-58
2021/10/07 04:22:43;;;;;;;58.13;29.90;;;10.80;99.90;;;;;;5108375;28;20141;-59
2021/10/07 04:25:08;;;;;;;70.22;31.67;;;10.80;99.90;;;;;;5106432;28;20034;-59
2021/10/07 04:27:35;;;;;;;88.50;30.48;;;10.80;99.90;;;;;;5104624;28;20704;-58
2021/10/07 04:30:03;;;;;;;62.15;30.58;;;10.80;99.90;;;;;;5080784;28;20048;-58
2021/10/07 04:32:29;;;;;;;74.35;30.98;;;10.80;99.90;;;;;;5101632;28;20019;-57
2021/10/07 04:34:54;;;;;;;77.15;32.85;;;10.80;99.90;;;;;;5101604;28;20032;-57
2021/10/07 04:37:20;;;;;;;75.15;33.53;;;10.80;99.90;;;;;;5103764;28;20036;-58
2021/10/07 04:39:46;;;;;;;71.55;29.80;;;10.80;99.90;;;;;;5103579;28;20028;-59
2021/10/07 04:42:11;;;;;;;70.60;32.97;;;10.80;99.90;;;;;;5098279;28;20118;-58
2021/10/07 04:44:37;;;;;;;69.80;32.60;;;10.80;99.90;;;;;;5097939;28;20028;-59
2021/10/07 04:47:03;;;;;;;75.20;30.60;;;10.70;99.90;;;;;;5106426;28;20056;-59
2021/10/07 04:49:28;;;;;;;67.82;30.85;;;10.60;99.90;;;;;;5106209;28;20028;-59
2021/10/07 04:51:54;;;;;;;78.75;30.63;;;10.50;99.90;;;;;;5110603;28;20019;-57
2021/10/07 04:54:19;;;;;;;70.15;30.58;;;10.40;99.90;;;;;;5108508;28;20429;-57
2021/10/07 04:56:45;;;;;;;81.25;32.13;;;10.30;99.90;;;;;;5106770;28;20114;-59
2021/10/07 04:59:10;;;;;;;87.10;31.88;;;10.20;99.90;;;;;;5108236;28;20030;-58
2021/10/07 05:01:36;;;;;;;74.82;29.55;;;10.10;99.90;;;;;;5106293;28;20036;-59
2021/10/07 05:04:03;;;;;;;69.68;31.25;;;10.00;99.90;;;;;;5108181;28;20063;-57
2021/10/07 05:06:29;;;;;;;60.00;28.42;;;9.90;99.90;;;;;;5107174;27;20028;-58
2021/10/07 05:08:55;;;;;;;68.82;31.17;;;9.80;99.90;;;;;;5109902;27;20043;-56
2021/10/07 05:11:21;;;;;;;73.03;30.73;;;9.80;99.90;;;;;;5111944;28;20477;-57
2021/10/07 05:13:46;;;;;;;90.00;35.13;;;9.70;99.90;;;;;;5107758;28;20031;-58
2021/10/07 05:16:12;;;;;;;90.85;31.60;;;9.70;99.90;;;;;;5106862;28;20047;-58
2021/10/07 05:18:37;;;;;;;78.55;33.05;;;9.60;99.90;;;;;;5106523;28;20019;-56
2021/10/07 05:21:03;;;;;;;92.15;33.65;;;9.60;99.90;;;;;;5105393;28;20118;-57
2021/10/07 05:23:29;;;;;;;79.35;31.88;;;9.50;99.90;;;;;;5107354;28;20063;-57
2021/10/07 05:25:55;;;;;;;93.97;32.85;;;9.40;99.90;;;;;;5108359;28;20028;-59
2021/10/07 05:28:20;;;;;;;86.93;30.05;;;9.40;99.90;;;;;;5102693;28;20078;-58
2021/10/07 05:30:48;;;;;;;84.97;34.03;;;9.30;99.90;;;;;;5084363;28;20043;-57
2021/10/07 05:33:14;;;;;;;85.40;30.85;;;9.30;99.90;;;;;;5103371;28;20024;-57
2021/10/07 05:35:40;;;;;;;85.80;32.03;;;9.30;99.90;;;;;;5106010;28;20119;-54
2021/10/07 05:38:06;;;;;;;89.65;33.08;;;9.20;99.90;;;;;;5108818;28;20024;-57
2021/10/07 05:40:31;;;;;;;84.95;32.08;;;9.20;99.90;;;;;;5102340;28;20415;-59
2021/10/07 05:42:57;;;;;;;88.28;33.97;;;9.10;99.90;;;;;;5108165;28;20095;-58
2021/10/07 05:45:22;;;;;;;95.35;35.28;;;9.10;99.90;;;;;;5107471;28;20035;-59
2021/10/07 05:47:48;;;;;;;100.88;35.75;;;9.10;99.90;;;;;;5110435;28;20024;-57
2021/10/07 05:50:14;;;;;;;136.05;42.05;;;9.10;99.90;;;;;;5099264;28;20030;-58
2021/10/07 05:52:39;;;;;;;102.97;34.75;;;9.20;99.90;;;;;;5106289;28;20457;-54
2021/10/07 05:55:06;;;;;;;103.38;36.15;;;9.20;99.90;;;;;;5108937;28;20497;-57
2021/10/07 05:57:31;;;;;;;122.63;38.55;;;9.10;99.90;;;;;;5106014;28;20031;-56
2021/10/07 05:59:57;;;;;;;97.57;33.58;;;9.20;99.90;;;;;;5106331;28;20503;-57
2021/10/07 06:02:22;;;;;;;90.20;32.22;;;9.20;99.90;;;;;;5105959;28;20038;-59
2021/10/07 06:04:48;;;;;;;84.40;32.13;;;9.20;99.90;;;;;;5107872;28;20028;-56
2021/10/07 06:07:13;;;;;;;79.93;30.10;;;9.20;99.90;;;;;;5106245;28;20085;-57
2021/10/07 06:09:39;;;;;;;103.30;33.60;;;9.20;99.90;;;;;;5105134;28;20027;-57
2021/10/07 06:12:05;;;;;;;87.18;29.25;;;9.20;99.90;;;;;;5107464;28;20032;-57
2021/10/07 06:14:30;;;;;;;80.70;29.40;;;9.30;99.90;;;;;;5109196;28;20043;-59
2021/10/07 06:16:56;;;;;;;94.05;29.42;;;9.30;99.90;;;;;;5102530;28;20058;-58
2021/10/07 06:19:24;;;;;;;95.10;29.83;;;9.50;99.90;;;;;;5104105;28;20089;-55
2021/10/07 06:21:53;;;;;;;72.00;28.83;;;9.60;99.90;;;;;;5106922;27;20020;-59
2021/10/07 06:24:19;;;;;;;66.30;26.85;;;9.70;99.90;;;;;;5105586;28;20028;-59
2021/10/07 06:26:45;;;;;;;57.35;26.75;;;9.80;99.90;;;;;;5103363;28;20118;-58
2021/10/07 06:29:11;;;;;;;58.17;26.65;;;9.90;99.90;;;;;;5085713;28;20248;-58
2021/10/07 06:31:38;;;;;;;60.00;24.23;;;10.00;99.90;;;;;;5109687;28;20031;-59
2021/10/07 06:34:04;;;;;;;47.85;22.23;;;10.10;99.90;;;;;;5106189;28;20099;-56
2021/10/07 06:36:30;;;;;;;49.50;21.83;;;10.10;99.90;;;;;;5105057;28;20027;-56
2021/10/07 06:38:56;;;;;;;51.72;23.70;;;10.20;99.90;;;;;;5100094;27;20066;-58
2021/10/07 06:41:22;;;;;;;51.30;22.77;;;10.20;99.90;;;;;;5105323;28;20449;-59
2021/10/07 06:43:48;;;;;;;44.97;22.65;;;10.30;99.90;;;;;;5107374;27;20027;-59
2021/10/07 06:46:13;;;;;;;42.30;21.33;;;10.40;99.90;;;;;;5098667;28;20028;-53
2021/10/07 06:48:40;;;;;;;39.13;22.05;;;10.50;99.90;;;;;;5104389;28;20504;-57
2021/10/07 06:51:09;;;;;;;36.17;21.20;;;10.60;99.90;;;;;;5099557;28;20038;-59
2021/10/07 06:53:36;;;;;;;338.42;28.98;;;10.70;99.90;;;;;;5102541;28;20039;-59
2021/10/07 06:56:03;;;;;;;31.55;20.02;;;10.80;99.90;;;;;;5106112;28;20019;-58
2021/10/07 06:58:28;;;;;;;32.83;20.52;;;10.80;99.90;;;;;;5101573;28;20602;-58
2021/10/07 07:00:54;;;;;;;60.40;20.67;;;10.80;99.90;;;;;;5105887;28;20024;-56
2021/10/07 07:03:19;;;;;;;102.45;20.20;;;10.80;99.90;;;;;;5108095;28;20074;-59
2021/10/07 07:05:45;;;;;;;114.15;20.02;;;10.90;99.90;;;;;;5103536;28;20523;-59
2021/10/07 07:08:10;;;;;;;124.55;17.48;;;10.90;99.90;;;;;;5105685;28;20472;-58
2021/10/07 07:10:36;;;;;;;98.75;18.25;;;11.10;99.90;;;;;;5105101;28;20081;-57
2021/10/07 07:13:06;;;;;;;41.58;18.17;;;11.20;99.90;;;;;;5110843;28;20077;-58
2021/10/07 07:15:33;;;;;;;86.88;17.90;;;11.30;99.90;;;;;;5111823;28;20084;-57
2021/10/07 07:17:58;;;;;;;55.17;17.48;;;11.40;99.90;;;;;;5112206;28;20024;-59
2021/10/07 07:20:24;;;;;;;28.98;16.48;;;11.50;99.90;;;;;;5104787;28;20035;-58
2021/10/07 07:22:50;;;;;;;29.90;15.73;;;11.60;99.90;;;;;;5110405;28;20065;-58
2021/10/07 07:25:16;;;;;;;28.17;17.25;;;11.70;99.90;;;;;;5104082;28;20031;-59
2021/10/07 07:27:44;;;;;;;27.02;17.45;;;11.70;99.90;;;;;;5101128;28;20020;-59
2021/10/07 07:30:10;;;;;;;28.17;18.38;;;11.70;99.90;;;;;;5089803;28;20059;-59
2021/10/07 07:32:36;;;;;;;33.03;19.67;;;12.00;99.90;;;;;;5102387;28;20141;-59
2021/10/07 07:35:03;;;;;;;28.40;18.40;;;12.10;99.90;;;;;;5102312;28;20043;-58
2021/10/07 07:37:29;;;;;;;31.73;20.50;;;12.30;99.90;;;;;;5108907;28;20043;-56
2021/10/07 07:39:54;;;;;;;31.00;17.77;;;12.40;99.90;;;;;;5108504;28;20023;-57
2021/10/07 07:42:20;;;;;;;24.58;17.23;;;12.60;99.90;;;;;;5108060;28;20055;-57
2021/10/07 07:44:47;;;;;;;24.83;16.23;;;12.90;99.90;;;;;;5099931;28;20070;-59
2021/10/07 07:47:13;;;;;;;25.17;16.60;;;13.20;99.90;;;;;;5109104;28;20031;-60
2021/10/07 07:49:41;;;;;;;28.48;16.83;;;13.40;99.90;;;;;;5109546;28;20551;-58
2021/10/07 07:52:08;;;;;;;27.40;18.05;;;13.50;99.90;;;;;;5107755;28;20020;-58
2021/10/07 07:54:34;;;;;;;25.60;17.00;;;13.70;99.90;;;;;;5108404;28;20019;-59
2021/10/07 07:56:59;;;;;;;28.63;17.50;;;13.60;99.90;;;;;;5108901;28;20095;-59
2021/10/07 07:59:25;;;;;;;26.85;18.25;;;13.60;99.90;;;;;;5107087;28;20038;-60
2021/10/07 08:01:50;;;;;;;25.33;18.35;;;13.70;99.90;;;;;;5106644;28;20031;-60
2021/10/07 08:04:17;;;;;;;26.95;17.67;;;13.80;99.90;;;;;;5106838;28;20436;-58
2021/10/07 08:06:42;;;;;;;24.02;16.17;;;14.00;99.90;;;;;;5102521;28;20397;-54
2021/10/07 08:09:09;;;;;;;24.80;17.42;;;13.90;99.90;;;;;;5102301;28;20020;-59
2021/10/07 08:11:39;;;;;;;26.13;18.80;;;14.10;99.90;;;;;;5109505;28;20047;-57
2021/10/07 08:14:07;;;;;;;25.90;17.85;;;13.90;99.90;;;;;;5104950;28;20086;-58
2021/10/07 08:16:33;;;;;;;27.98;18.02;;;13.70;99.90;;;;;;5106344;28;20019;-57
2021/10/07 08:18:58;;;;;;;27.88;17.25;;;13.80;99.90;;;;;;5105501;28;20038;-58
2021/10/07 08:21:25;;;;;;;29.20;18.17;;;13.80;99.90;;;;;;5113656;28;20028;-57
2021/10/07 08:23:50;;;;;;;25.92;18.30;;;13.90;99.90;;;;;;5110182;28;20034;-60
2021/10/07 08:26:16;;;;;;;21.17;17.13;;;14.00;99.90;;;;;;5110523;28;20027;-59
2021/10/07 08:28:42;;;;;;;25.83;16.77;;;14.30;99.90;;;;;;5111701;28;20039;-53
2021/10/07 08:31:09;;;;;;;26.90;17.67;;;14.80;99.90;;;;;;5092374;28;20038;-56
2021/10/07 08:33:35;;;;;;;27.27;17.08;;;15.20;99.90;;;;;;5099506;28;20035;-57
2021/10/07 08:36:01;;;;;;;26.73;17.52;;;15.00;99.90;;;;;;5110085;28;20032;-56
2021/10/07 08:38:28;;;;;;;25.25;18.83;;;15.00;99.90;;;;;;5111499;28;20024;-56
2021/10/07 08:40:54;;;;;;;24.35;17.83;;;15.00;99.90;;;;;;5108930;28;20051;-57
2021/10/07 08:43:20;;;;;;;26.80;17.90;;;15.00;99.90;;;;;;5103635;28;20066;-57
2021/10/07 08:45:46;;;;;;;28.38;18.42;;;15.00;99.90;;;;;;5101080;28;20047;-57
2021/10/07 08:48:12;;;;;;;27.20;18.52;;;14.90;99.90;;;;;;5108901;28;20489;-55
2021/10/07 08:50:38;;;;;;;28.70;20.27;;;14.60;99.90;;;;;;5101862;28;20031;-56
2021/10/07 08:53:06;;;;;;;29.60;19.45;;;14.50;99.90;;;;;;5099828;28;20131;-56
2021/10/07 08:55:32;;;;;;;26.25;19.63;;;14.30;99.90;;;;;;5111600;28;20023;-57
2021/10/07 08:57:57;;;;;;;24.52;16.70;;;14.10;99.90;;;;;;5104744;28;20031;-53
2021/10/07 09:00:23;;;;;;;23.58;17.13;;;14.20;99.90;;;;;;5109469;28;20036;-56
2021/10/07 09:02:49;;;;;;;26.33;20.60;;;14.20;99.90;;;;;;5103848;28;20028;-56
2021/10/07 09:05:20;;;;;;;28.75;19.65;;;14.20;99.90;;;;;;5111580;28;20031;-58
2021/10/07 09:08:02;;;;;;;34.63;19.10;;;14.30;99.90;;;;;;5108518;28;20035;-57
2021/10/07 09:10:46;;;;;;;27.05;17.17;;;14.50;99.90;;;;;;5103923;28;20051;-56
2021/10/07 09:13:23;;;;;;;24.88;16.38;;;14.90;99.90;;;;;;5108130;28;20493;-57
2021/10/07 09:16:00;;;;;;;21.42;15.38;;;15.40;99.90;;;;;;5105989;28;20373;-57
2021/10/07 09:18:27;;;;;;;25.05;15.68;;;15.80;99.90;;;;;;5103015;28;20573;-57
2021/10/07 09:20:56;;;;;;;24.38;17.75;;;16.30;99.90;;;;;;5105292;28;20396;-56
2021/10/07 09:23:24;;;;;;;22.77;14.77;;;16.50;99.90;;;;;;5106858;28;20055;-58
2021/10/07 09:25:53;;;;;;;23.92;17.02;;;16.60;99.90;;;;;;5107299;28;20023;-57
2021/10/07 09:28:18;;;;;;;19.92;15.73;;;16.50;99.90;;;;;;5106401;28;20031;-57
2021/10/07 09:30:44;;;;;;;20.60;14.60;;;16.50;99.90;;;;;;5092205;28;20039;-53
2021/10/07 09:33:10;;;;;;;21.70;16.48;;;16.20;99.90;;;;;;5106380;28;20024;-55
2021/10/07 09:35:37;;;;;;;25.65;16.52;;;16.00;99.90;;;;;;5100792;28;20072;-58
2021/10/07 09:38:05;;;;;;;21.58;15.90;;;16.10;99.90;;;;;;5107608;28;20036;-58
2021/10/07 09:40:31;;;;;;;22.63;16.52;;;16.00;99.90;;;;;;5107315;28;20027;-57
2021/10/07 09:43:03;;;;;;;24.02;15.73;;;15.80;99.90;;;;;;5108397;28;20024;-57
2021/10/07 09:45:31;;;;;;;25.45;15.48;;;15.60;99.90;;;;;;5098851;28;20107;-56
2021/10/07 09:48:06;;;;;;;35.28;17.77;;;15.60;99.90;;;;;;5103419;28;20107;-57
2021/10/07 09:50:36;;;;;;;35.45;17.90;;;15.40;99.90;;;;;;5099452;28;20519;-56
2021/10/07 09:53:16;;;;;;;35.83;17.65;;;15.30;99.90;;;;;;5104030;28;20045;-57
2021/10/07 09:55:44;;;;;;;22.45;16.58;;;15.60;99.90;;;;;;5104679;28;20027;-54
2021/10/07 09:58:14;;;;;;;22.35;15.95;;;15.70;99.90;;;;;;5110219;28;20567;-55
2021/10/07 10:00:43;;;;;;;21.50;16.08;;;15.50;99.90;;;;;;5108381;28;20500;-57
2021/10/07 10:03:10;;;;;;;24.77;16.75;;;15.20;99.90;;;;;;5105657;28;20035;-57
2021/10/07 10:05:38;;;;;;;26.00;17.42;;;14.90;99.90;;;;;;5110002;28;20101;-57
2021/10/07 10:08:13;;;;;;;25.85;17.98;;;14.90;99.90;;;;;;5105554;28;20118;-57
2021/10/07 10:10:42;;;;;;;23.35;17.05;;;14.90;99.90;;;;;;5109834;28;20026;-58
2021/10/07 10:13:11;;;;;;;25.17;17.27;;;15.10;99.90;;;;;;5110034;28;20487;-58
2021/10/07 10:15:38;;;;;;;25.35;17.02;;;15.20;99.90;;;;;;5107401;28;20099;-55
2021/10/07 10:18:08;;;;;;;23.58;15.35;;;15.30;99.90;;;;;;5107931;28;20106;-57
2021/10/07 10:20:36;;;;;;;30.17;16.50;;;15.40;99.90;;;;;;5106166;28;20019;-57
2021/10/07 10:23:09;;;;;;;19.15;13.45;;;15.60;99.90;;;;;;5101799;28;20119;-56
2021/10/07 10:26:13;;;;;;;20.80;15.77;;;15.80;99.90;;;;;;5106050;28;20118;-58
2021/10/07 10:28:44;;;;;;;16.95;10.77;;;15.90;99.90;;;;;;5105833;28;20164;-57
2021/10/07 10:31:14;;;;;;;12.55;8.85;;;16.20;99.90;;;;;;5111404;28;20016;-58
2021/10/07 10:33:45;;;;;;;11.32;6.55;;;16.40;99.90;;;;;;5108984;28;20024;-56
2021/10/07 10:36:27;;;;;;;12.27;7.93;;;16.50;99.90;;;;;;5096990;28;20060;-56
2021/10/07 10:39:13;;;;;;;11.95;7.95;;;16.60;99.90;;;;;;5109661;28;20039;-58
2021/10/07 10:42:26;;;;;;;13.05;7.70;;;16.70;99.90;;;;;;5108298;28;20559;-56
2021/10/07 10:45:01;;;;;;;14.27;8.82;;;16.70;99.90;;;;;;5095345;28;20163;-58
2021/10/07 10:47:29;;;;;;;13.20;7.72;;;16.70;99.90;;;;;;5105122;28;20037;-57
2021/10/07 10:50:12;;;;;;;9.98;6.90;;;16.70;99.90;;;;;;5103266;28;20540;-57
2021/10/07 10:52:41;;;;;;;12.52;7.57;;;16.90;99.90;;;;;;5106011;28;20030;-58
2021/10/07 10:55:28;;;;;;;11.80;6.85;;;16.90;99.90;;;;;;5101120;28;20128;-54
2021/10/07 10:58:02;;;;;;;10.65;7.22;;;16.80;99.90;;;;;;5108580;28;20031;-57
2021/10/07 11:00:30;;;;;;;9.63;6.65;;;16.80;99.90;;;;;;5098648;28;20035;-57
2021/10/07 11:03:08;;;;;;;7.88;6.28;;;16.90;99.90;;;;;;5107613;28;20438;-56
2021/10/07 11:05:40;;;;;;;10.65;6.85;;;16.90;99.90;;;;;;5109610;28;20026;-57
2021/10/07 11:08:13;;;;;;;12.35;7.68;;;16.90;99.90;;;;;;5102795;28;20476;-56
2021/10/07 11:10:43;;;;;;;10.07;7.55;;;16.80;99.90;;;;;;5107440;28;20028;-55
2021/10/07 11:13:14;;;;;;;14.18;7.85;;;16.70;99.90;;;;;;5099798;28;20026;-56
2021/10/07 11:15:40;;;;;;;11.70;7.38;;;16.80;99.90;;;;;;5101512;28;20031;-57
2021/10/07 11:18:09;;;;;;;12.23;7.00;;;16.70;99.90;;;;;;5104929;28;20031;-53
2021/10/07 11:20:35;;;;;;;10.82;6.95;;;16.70;99.90;;;;;;5098833;28;20504;-56
2021/10/07 11:23:06;;;;;;;11.95;6.32;;;16.70;99.90;;;;;;5095808;28;20036;-56
2021/10/07 11:25:33;;;;;;;17.50;9.98;;;16.40;99.90;;;;;;5097646;28;20060;-56
2021/10/07 11:27:59;;;;;;;16.23;10.43;;;16.20;99.90;;;;;;5108570;28;20056;-54
2021/10/07 11:30:25;;;;;;;15.60;9.43;;;15.90;99.90;;;;;;5101013;28;20051;-57
2021/10/07 11:32:51;;;;;;;10.93;7.50;;;15.80;99.90;;;;;;5107013;28;20024;-57
2021/10/07 11:35:20;;;;;;;6.75;5.10;;;15.80;99.90;;;;;;5101138;28;20085;-55
2021/10/07 11:37:51;;;;;;;8.93;6.28;;;15.80;99.90;;;;;;5102087;27;20527;-56
2021/10/07 11:40:32;;;;;;;11.45;6.15;;;15.90;99.90;;;;;;5106740;28;20115;-56
2021/10/07 11:43:01;;;;;;;10.57;6.38;;;16.00;99.90;;;;;;5105233;28;20023;-58
2021/10/07 11:45:30;;;;;;;8.77;6.22;;;16.00;99.90;;;;;;5107660;28;20077;-56
2021/10/07 11:47:56;;;;;;;9.70;5.85;;;16.00;99.90;;;;;;5107982;28;20102;-58
2021/10/07 11:50:24;;;;;;;8.45;6.38;;;16.00;99.90;;;;;;5106612;28;20019;-57
2021/10/07 11:52:51;;;;;;;10.02;6.00;;;16.00;99.90;;;;;;5104887;28;20031;-57
2021/10/07 11:55:18;;;;;;;12.40;6.80;;;16.10;99.90;;;;;;5108020;28;20035;-57
2021/10/07 11:57:56;;;;;;;9.60;6.55;;;16.10;99.90;;;;;;5104326;28;20070;-58
2021/10/07 12:00:41;;;;;;;11.13;5.63;;;16.10;99.90;;;;;;5102976;28;20073;-58
2021/10/07 12:03:14;;;;;;;8.55;6.10;;;16.00;99.90;;;;;;5103692;28;20472;-57
2021/10/07 12:05:40;;;;;;;11.53;7.07;;;16.00;99.90;;;;;;5101997;28;20027;-59
2021/10/07 12:08:15;;;;;;;9.85;6.45;;;15.90;99.90;;;;;;5104363;28;20030;-59
2021/10/07 12:10:49;;;;;;;11.13;6.20;;;15.90;99.90;;;;;;5103735;28;20044;-59
2021/10/07 12:13:21;;;;;;;8.95;6.25;;;15.90;99.90;;;;;;5109157;28;20074;-59
2021/10/07 12:16:04;;;;;;;8.32;5.88;;;16.00;99.90;;;;;;5107242;28;20019;-59
2021/10/07 12:18:33;;;;;;;8.52;5.28;;;16.00;99.90;;;;;;5105740;28;20134;-58
2021/10/07 12:21:05;;;;;;;8.52;5.18;;;16.30;99.90;;;;;;5100272;28;20024;-58
2021/10/07 12:23:45;;;;;;;9.25;6.20;;;16.40;99.90;;;;;;5102724;28;20388;-57
2021/10/07 12:26:10;;;;;;;7.88;5.03;;;16.50;99.90;;;;;;5098286;28;20030;-58
2021/10/07 12:28:42;;;;;;;6.97;5.22;;;16.60;99.90;;;;;;5090127;28;20016;-59
2021/10/07 12:31:08;;;;;;;6.72;5.05;;;16.70;99.90;;;;;;5101502;28;20016;-59
2021/10/07 12:33:34;;;;;;;7.93;5.70;;;16.70;99.90;;;;;;5098108;28;20107;-59
2021/10/07 12:36:02;;;;;;;9.18;5.63;;;16.80;99.90;;;;;;5107047;28;20534;-59
2021/10/07 12:38:29;;;;;;;7.50;5.18;;;17.00;99.90;;;;;;5108623;28;20077;-58
2021/10/07 12:40:59;;;;;;;9.07;5.47;;;17.20;99.90;;;;;;5109318;28;20102;-59